Time;durP1;ratioP1;P1;durP2;ratioP2;P2;SDS_P1;SDS_P2;PMS_P1;PMS_P2;Temp;Humidity;BMP_temperature;BMP_pressure;BME280_temperature;BME280_humidity;BME280_pressure;Samples;Min_cycle;Max_cycle;Signal;HPM_P1;HPM_P2
2024/01/13 00:00:13;;;;;;;73.17;41.13;;;-3.60;18.70;;;;;;4973651;28;20181;-70
2024/01/13 00:02:38;;;;;;;68.70;36.92;;;-3.60;18.70;;;;;;4956356;28;20207;-69
2024/01/13 00:05:04;;;;;;;71.17;39.57;;;-3.60;19.20;;;;;;4973860;28;20181;-70
2024/01/13 00:07:29;;;;;;;74.20;39.20;;;-3.70;19.90;;;;;;4956037;28;20225;-71
2024/01/13 00:09:55;;;;;;;71.63;39.40;;;-3.70;20.80;;;;;;4973563;28;20915;-70
2024/01/13 00:12:21;;;;;;;65.87;36.93;;;-3.70;20.50;;;;;;4973256;28;20267;-70
2024/01/13 00:14:46;;;;;;;81.00;39.30;;;-3.70;20.80;;;;;;4973420;28;20720;-70
2024/01/13 00:17:12;;;;;;;80.30;40.37;;;-3.70;20.50;;;;;;4955732;28;20557;-70
2024/01/13 00:19:37;;;;;;;75.53;43.07;;;-3.60;20.50;;;;;;4973315;28;20271;-70
2024/01/13 00:22:03;;;;;;;59.13;37.20;;;-3.60;18.30;;;;;;4973082;28;20208;-74
2024/01/13 00:24:29;;;;;;;71.07;40.17;;;-3.70;18.70;;;;;;4955668;28;20189;-69
2024/01/13 00:26:54;;;;;;;70.83;40.00;;;-3.70;18.70;;;;;;4972916;28;20523;-69
2024/01/13 00:29:20;;;;;;;65.60;35.47;;;-3.80;18.00;;;;;;4973054;28;20548;-70
2024/01/13 00:31:45;;;;;;;75.73;38.40;;;-3.80;18.60;;;;;;4955573;28;20201;-71
2024/01/13 00:34:11;;;;;;;66.53;36.50;;;-3.80;17.60;;;;;;4955551;28;20213;-69
2024/01/13 00:36:37;;;;;;;58.03;34.17;;;-3.80;16.60;;;;;;4972838;28;20193;-69
2024/01/13 00:39:02;;;;;;;51.57;32.20;;;-3.80;15.60;;;;;;4955683;28;20189;-69
2024/01/13 00:41:28;;;;;;;56.63;36.10;;;-3.80;14.50;;;;;;4955425;28;20456;-69
2024/01/13 00:43:53;;;;;;;56.83;35.70;;;-3.80;14.30;;;;;;4955424;28;20276;-69
2024/01/13 00:46:19;;;;;;;57.47;31.37;;;-3.80;12.20;;;;;;4972541;28;20208;-69
2024/01/13 00:48:45;;;;;;;60.17;35.93;;;-3.80;11.80;;;;;;4955703;28;20275;-70
2024/01/13 00:51:11;;;;;;;57.80;34.93;;;-3.90;11.80;;;;;;4972614;28;20787;-70
2024/01/13 00:53:37;;;;;;;51.23;33.17;;;-4.00;11.20;;;;;;4972451;28;20508;-70
2024/01/13 00:56:03;;;;;;;58.27;34.90;;;-4.10;12.00;;;;;;4954794;28;20420;-70
2024/01/13 00:58:28;;;;;;;52.50;33.97;;;-4.00;12.50;;;;;;4972941;28;20421;-70
2024/01/13 01:00:59;;;;;;;61.70;33.43;;;-3.90;12.40;;;;;;4954999;28;20208;-71
2024/01/13 01:03:28;;;;;;;51.50;30.10;;;-4.00;11.20;;;;;;4972925;28;20245;-70
2024/01/13 01:05:54;;;;;;;56.08;32.53;;;-4.00;11.20;;;;;;4972647;28;20554;-70
2024/01/13 01:08:20;;;;;;;55.50;35.93;;;-4.00;10.10;;;;;;4972443;28;20192;-69
2024/01/13 01:10:46;;;;;;;55.40;34.08;;;-4.20;8.00;;;;;;4972545;28;20440;-70
2024/01/13 01:13:12;;;;;;;61.08;35.10;;;-4.20;7.10;;;;;;4972314;28;20281;-70
2024/01/13 01:15:37;;;;;;;50.07;31.63;;;-4.20;7.50;;;;;;4954943;28;20275;-70
2024/01/13 01:18:03;;;;;;;54.87;33.27;;;-4.20;7.10;;;;;;4955165;28;20612;-70
2024/01/13 01:20:28;;;;;;;51.90;33.23;;;-4.20;6.30;;;;;;4972483;28;20197;-71
2024/01/13 01:22:54;;;;;;;55.50;35.83;;;-4.10;5.80;;;;;;4972541;28;20562;-71
2024/01/13 01:25:19;;;;;;;53.93;33.70;;;-4.10;5.10;;;;;;4972556;28;20240;-71
2024/01/13 01:27:45;;;;;;;52.17;31.07;;;-4.20;3.60;;;;;;4972054;28;20248;-71
2024/01/13 01:30:12;;;;;;;60.70;33.20;;;-4.20;2.40;;;;;;4972487;28;20204;-71
2024/01/13 01:32:37;;;;;;;47.70;30.40;;;-4.20;3.00;;;;;;4955142;28;20208;-71
2024/01/13 01:35:03;;;;;;;54.17;29.97;;;-4.20;3.20;;;;;;4972384;28;20671;-70
2024/01/13 01:37:29;;;;;;;51.80;34.50;;;-4.30;2.70;;;;;;4954813;28;20556;-70
2024/01/13 01:39:54;;;;;;;55.80;34.27;;;-4.20;3.70;;;;;;4972181;28;20212;-71
2024/01/13 01:42:20;;;;;;;46.90;31.87;;;-4.30;3.50;;;;;;4954729;28;20201;-70
2024/01/13 01:44:45;;;;;;;44.40;29.60;;;-4.30;4.00;;;;;;4972570;28;20196;-71
2024/01/13 01:47:12;;;;;;;47.77;29.60;;;-4.30;3.20;;;;;;4954875;28;20213;-71
2024/01/13 01:49:38;;;;;;;53.40;27.42;;;-4.30;1.90;;;;;;4972676;28;20185;-71
2024/01/13 01:52:04;;;;;;;42.08;28.08;;;-4.30;1.30;;;;;;4972023;28;20216;-73
2024/01/13 01:54:30;;;;;;;51.25;29.40;;;-4.30;1.00;;;;;;4972411;28;20181;-71
2024/01/13 01:56:57;;;;;;;49.70;32.20;;;-4.50;1.00;;;;;;4972084;28;20663;-71
2024/01/13 01:59:24;;;;;;;57.15;31.15;;;-4.60;1.00;;;;;;4971901;28;20243;-70
2024/01/13 02:01:50;;;;;;;49.28;30.73;;;-4.70;1.00;;;;;;4972400;28;20609;-71
2024/01/13 02:04:16;;;;;;;49.35;31.00;;;-4.70;1.00;;;;;;4955299;28;20644;-71
2024/01/13 02:06:42;;;;;;;57.63;32.87;;;-4.70;2.00;;;;;;4957223;28;20205;-71
2024/01/13 02:09:07;;;;;;;44.20;29.20;;;-4.80;2.20;;;;;;4975864;28;20282;-71
2024/01/13 02:11:33;;;;;;;53.03;31.30;;;-4.80;2.80;;;;;;4958454;28;20447;-72
2024/01/13 02:13:59;;;;;;;50.37;31.63;;;-4.90;2.50;;;;;;4975447;28;20181;-70
2024/01/13 02:16:25;;;;;;;51.07;31.70;;;-4.90;2.10;;;;;;4975641;28;20188;-70
2024/01/13 02:18:50;;;;;;;54.58;34.33;;;-4.90;2.00;;;;;;4975447;28;20503;-70
2024/01/13 02:21:16;;;;;;;52.30;29.90;;;-4.90;2.70;;;;;;4958161;28;20197;-70
2024/01/13 02:23:42;;;;;;;53.07;34.07;;;-4.80;4.20;;;;;;4975283;28;20553;-71
2024/01/13 02:26:07;;;;;;;51.87;33.30;;;-4.80;3.40;;;;;;4975408;28;20607;-70
2024/01/13 02:28:33;;;;;;;53.90;32.50;;;-4.80;3.50;;;;;;4957965;28;20177;-71
2024/01/13 02:30:59;;;;;;;53.47;32.42;;;-4.70;3.10;;;;;;4975456;28;20672;-70
2024/01/13 02:33:24;;;;;;;60.47;33.00;;;-4.70;3.30;;;;;;4957947;28;20236;-70
2024/01/13 02:35:50;;;;;;;43.73;28.63;;;-4.70;3.00;;;;;;4958039;28;20177;-71
2024/01/13 02:38:15;;;;;;;42.37;27.87;;;-4.60;3.70;;;;;;4975634;28;20264;-72
2024/01/13 02:40:41;;;;;;;47.87;27.50;;;-4.60;3.70;;;;;;4958221;28;20201;-70
2024/01/13 02:43:06;;;;;;;52.93;29.90;;;-4.60;4.00;;;;;;4957548;28;20184;-69
2024/01/13 02:45:32;;;;;;;47.30;31.87;;;-4.70;4.30;;;;;;4975299;28;20177;-70
2024/01/13 02:48:10;;;;;;;52.43;29.80;;;-4.70;5.30;;;;;;4974904;28;20209;-71
2024/01/13 02:50:35;;;;;;;60.42;31.73;;;-4.60;5.50;;;;;;4975012;28;20215;-71
2024/01/13 02:53:01;;;;;;;49.80;31.13;;;-4.70;5.70;;;;;;4955636;29;20653;-71
2024/01/13 02:55:26;;;;;;;46.43;27.20;;;-4.60;6.60;;;;;;4955897;29;20236;-71
2024/01/13 02:57:52;;;;;;;51.07;30.80;;;-4.80;6.90;;;;;;4955790;29;20189;-70
2024/01/13 03:00:17;;;;;;;48.87;29.83;;;-4.70;8.20;;;;;;4955634;28;20204;-70
2024/01/13 03:02:44;;;;;;;58.00;29.47;;;-4.70;7.50;;;;;;4954953;28;20188;-70
2024/01/13 03:05:10;;;;;;;40.58;29.75;;;-4.70;6.20;;;;;;4974754;28;20185;-71
2024/01/13 03:07:36;;;;;;;48.40;29.38;;;-4.70;5.40;;;;;;4975188;28;20563;-70
2024/01/13 03:10:02;;;;;;;53.00;30.93;;;-4.70;4.00;;;;;;4974664;28;20185;-70
2024/01/13 03:12:27;;;;;;;47.15;29.90;;;-4.70;3.60;;;;;;4974430;28;20290;-71
2024/01/13 03:14:53;;;;;;;44.03;31.00;;;-4.80;4.00;;;;;;4975634;28;20212;-71
2024/01/13 03:17:18;;;;;;;53.93;31.43;;;-4.70;4.50;;;;;;4958279;28;20185;-71
2024/01/13 03:19:44;;;;;;;49.60;30.47;;;-4.60;6.90;;;;;;4975582;28;20178;-71
2024/01/13 03:22:10;;;;;;;54.73;33.30;;;-4.70;7.70;;;;;;4957949;28;20390;-71
2024/01/13 03:24:35;;;;;;;52.07;30.27;;;-4.70;8.90;;;;;;4975595;28;20200;-71
2024/01/13 03:27:01;;;;;;;52.07;33.37;;;-4.80;9.60;;;;;;4975634;28;20216;-71
2024/01/13 03:29:26;;;;;;;60.77;30.20;;;-4.80;9.60;;;;;;4957474;28;20188;-71
2024/01/13 03:31:52;;;;;;;61.70;35.20;;;-4.80;9.60;;;;;;4956718;28;20198;-71
2024/01/13 03:34:17;;;;;;;57.53;31.20;;;-4.90;10.60;;;;;;4957029;28;20547;-71
2024/01/13 03:36:43;;;;;;;55.40;31.13;;;-4.90;11.00;;;;;;4957064;28;20195;-71
2024/01/13 03:39:09;;;;;;;54.07;31.77;;;-5.00;12.10;;;;;;4957922;28;20189;-71
2024/01/13 03:41:35;;;;;;;56.88;30.92;;;-5.00;11.80;;;;;;4958472;28;20293;-71
2024/01/13 03:44:00;;;;;;;58.50;34.03;;;-5.00;11.00;;;;;;4957871;28;20284;-72
2024/01/13 03:46:26;;;;;;;50.47;30.07;;;-5.00;10.70;;;;;;4975282;28;20201;-71
2024/01/13 03:48:52;;;;;;;42.10;29.37;;;-5.00;9.00;;;;;;4975788;28;20924;-70
2024/01/13 03:51:17;;;;;;;48.10;29.70;;;-5.00;8.80;;;;;;4958024;28;20213;-71
2024/01/13 03:53:43;;;;;;;53.70;32.87;;;-4.90;8.60;;;;;;4975324;28;20184;-69
2024/01/13 03:56:08;;;;;;;67.13;33.57;;;-5.00;8.20;;;;;;4975419;28;20185;-70
2024/01/13 03:58:38;;;;;;;52.40;29.20;;;-5.00;7.70;;;;;;4956533;28;20264;-70
2024/01/13 04:01:03;;;;;;;40.40;28.30;;;-5.00;8.10;;;;;;4974189;28;20566;-70
2024/01/13 04:03:29;;;;;;;48.93;32.20;;;-4.90;8.20;;;;;;4973833;28;20190;-70
2024/01/13 04:05:54;;;;;;;45.50;29.57;;;-4.90;6.40;;;;;;4973842;28;20713;-71
2024/01/13 04:08:21;;;;;;;49.27;30.97;;;-4.90;6.20;;;;;;4973784;28;20207;-70
2024/01/13 04:10:46;;;;;;;44.15;31.85;;;-4.90;6.10;;;;;;4956532;28;20201;-71
2024/01/13 04:13:13;;;;;;;53.27;30.00;;;-5.00;7.20;;;;;;4973714;28;20192;-70
2024/01/13 04:15:39;;;;;;;53.58;31.05;;;-5.00;6.50;;;;;;4974023;28;20177;-71
2024/01/13 04:18:05;;;;;;;50.63;29.37;;;-4.90;6.90;;;;;;4974037;28;20199;-71
2024/01/13 04:20:30;;;;;;;53.80;31.17;;;-4.80;6.20;;;;;;4973472;28;20208;-71
2024/01/13 04:22:56;;;;;;;54.27;31.47;;;-4.90;6.80;;;;;;4955832;28;20432;-70
2024/01/13 04:25:21;;;;;;;49.50;32.27;;;-4.90;7.30;;;;;;4973566;28;20232;-70
2024/01/13 04:27:48;;;;;;;52.60;29.67;;;-4.90;6.90;;;;;;4973257;28;20206;-71
2024/01/13 04:30:14;;;;;;;49.22;31.27;;;-5.00;5.90;;;;;;4972362;28;20177;-70
2024/01/13 04:32:40;;;;;;;45.80;27.77;;;-5.00;4.90;;;;;;4973511;28;20184;-70
2024/01/13 04:35:06;;;;;;;42.55;25.85;;;-5.10;4.00;;;;;;4973712;28;20416;-70
2024/01/13 04:37:32;;;;;;;43.17;27.73;;;-5.00;4.00;;;;;;4973300;28;20182;-69
2024/01/13 04:39:57;;;;;;;39.73;27.00;;;-5.00;1.70;;;;;;4973019;28;20459;-70
2024/01/13 04:42:23;;;;;;;44.13;27.93;;;-5.10;1.70;;;;;;4972195;28;20612;-70
2024/01/13 04:44:48;;;;;;;52.30;27.10;;;-5.10;2.60;;;;;;4973311;28;20236;-70
2024/01/13 04:47:14;;;;;;;49.33;29.37;;;-5.00;2.50;;;;;;4956086;28;20229;-70
2024/01/13 04:49:40;;;;;;;50.63;27.37;;;-5.10;1.40;;;;;;4973415;28;20227;-70
2024/01/13 04:52:05;;;;;;;38.80;27.37;;;-5.00;1.30;;;;;;4973141;28;20466;-71
2024/01/13 04:54:31;;;;;;;59.40;29.97;;;-5.10;1.30;;;;;;4955777;28;20195;-71
2024/01/13 04:56:57;;;;;;;44.93;27.47;;;-5.20;1.70;;;;;;4973348;28;20176;-71
2024/01/13 04:59:22;;;;;;;53.03;28.33;;;-5.20;1.70;;;;;;4973485;28;20267;-71
2024/01/13 05:01:48;;;;;;;47.37;27.53;;;-5.30;2.70;;;;;;4973596;28;20268;-72
2024/01/13 05:04:13;;;;;;;47.90;28.30;;;-5.30;1.60;;;;;;4973898;28;20531;-69
2024/01/13 05:06:39;;;;;;;41.70;26.13;;;-5.40;1.30;;;;;;4974156;28;20205;-70
2024/01/13 05:09:05;;;;;;;46.13;26.80;;;-5.40;1.80;;;;;;4973942;28;20236;-70
2024/01/13 05:11:30;;;;;;;52.60;29.33;;;-5.40;2.40;;;;;;4973485;28;20265;-70
2024/01/13 05:13:56;;;;;;;49.97;27.33;;;-5.40;2.30;;;;;;4956507;28;20267;-70
2024/01/13 05:16:21;;;;;;;48.37;27.30;;;-5.50;3.40;;;;;;4973714;28;20174;-70
2024/01/13 05:18:47;;;;;;;43.03;27.43;;;-5.50;4.90;;;;;;4973208;28;20188;-70
2024/01/13 05:21:13;;;;;;;50.20;28.63;;;-5.50;4.30;;;;;;4973319;28;20193;-70
2024/01/13 05:23:38;;;;;;;57.33;31.20;;;-5.50;2.80;;;;;;4973190;28;20177;-72
2024/01/13 05:26:04;;;;;;;46.07;30.50;;;-5.50;2.80;;;;;;4955716;28;20184;-72
2024/01/13 05:28:30;;;;;;;48.90;28.17;;;-5.50;1.50;;;;;;4957003;28;20196;-71
2024/01/13 05:30:55;;;;;;;50.40;27.17;;;-5.60;1.80;;;;;;4974760;28;20436;-71
2024/01/13 05:33:21;;;;;;;47.73;26.63;;;-5.70;2.40;;;;;;4975006;28;20185;-70
2024/01/13 05:35:46;;;;;;;46.00;26.90;;;-5.70;3.20;;;;;;4974851;28;20185;-69
2024/01/13 05:38:12;;;;;;;42.13;25.63;;;-5.70;3.20;;;;;;4957453;28;20185;-71
2024/01/13 05:40:43;;;;;;;40.80;27.00;;;-5.70;3.10;;;;;;4975398;28;20296;-71
2024/01/13 05:43:09;;;;;;;42.47;27.73;;;-5.70;2.90;;;;;;4978272;28;20178;-73
2024/01/13 05:45:35;;;;;;;42.20;30.33;;;-5.60;3.20;;;;;;4978621;28;20177;-72
2024/01/13 05:48:00;;;;;;;42.83;26.83;;;-5.60;4.50;;;;;;4961188;28;20204;-72
2024/01/13 05:50:27;;;;;;;45.17;25.10;;;-5.60;4.30;;;;;;4961194;28;20240;-71
2024/01/13 05:52:53;;;;;;;36.78;24.63;;;-5.70;2.20;;;;;;4978227;28;20337;-72
2024/01/13 05:55:18;;;;;;;52.93;30.20;;;-5.70;2.30;;;;;;4977859;28;20177;-72
2024/01/13 05:57:44;;;;;;;47.40;28.30;;;-5.60;1.70;;;;;;4961148;28;21102;-71
2024/01/13 06:00:10;;;;;;;47.47;29.20;;;-5.70;1.70;;;;;;4977377;28;20183;-71
2024/01/13 06:02:35;;;;;;;49.80;28.87;;;-5.60;1.20;;;;;;4977195;28;20207;-70
2024/01/13 06:05:01;;;;;;;44.10;29.07;;;-5.60;1.00;;;;;;4959199;28;20256;-73
2024/01/13 06:07:27;;;;;;;41.37;25.53;;;-5.60;1.00;;;;;;4959537;28;20299;-71
2024/01/13 06:09:52;;;;;;;49.47;26.20;;;-5.60;1.00;;;;;;4976727;28;20261;-71
2024/01/13 06:12:20;;;;;;;41.00;25.20;;;-5.60;1.00;;;;;;4976267;28;20193;-71
2024/01/13 06:14:45;;;;;;;44.50;25.25;;;-5.60;1.00;;;;;;4974000;28;20171;-74
2024/01/13 06:17:11;;;;;;;36.80;25.17;;;-5.70;1.00;;;;;;4941305;29;20186;-72
2024/01/13 06:19:37;;;;;;;45.27;28.00;;;-5.70;1.00;;;;;;4972304;28;20181;-71
2024/01/13 06:22:03;;;;;;;40.13;27.53;;;-5.70;1.50;;;;;;4976702;28;20734;-71
2024/01/13 06:24:28;;;;;;;42.97;25.50;;;-5.70;2.10;;;;;;4976780;28;20181;-70
2024/01/13 06:26:54;;;;;;;50.53;29.00;;;-5.60;2.30;;;;;;4958482;28;20530;-70
2024/01/13 06:29:19;;;;;;;39.60;24.20;;;-5.70;2.20;;;;;;4975914;28;20190;-72
2024/01/13 06:31:45;;;;;;;47.70;27.60;;;-5.70;2.70;;;;;;4976002;28;20201;-72
2024/01/13 06:34:10;;;;;;;48.40;26.30;;;-5.60;2.60;;;;;;4975459;28;20260;-71
2024/01/13 06:36:36;;;;;;;48.23;30.07;;;-5.60;3.00;;;;;;4975946;28;20177;-72
2024/01/13 06:39:01;;;;;;;42.73;25.37;;;-5.60;2.60;;;;;;4978077;28;20185;-68
2024/01/13 06:41:27;;;;;;;45.07;26.07;;;-5.70;3.10;;;;;;4976749;28;20272;-70
2024/01/13 06:43:53;;;;;;;57.27;29.33;;;-5.60;3.30;;;;;;4977035;28;20181;-71
2024/01/13 06:46:18;;;;;;;51.97;27.23;;;-5.60;3.20;;;;;;4975763;28;20251;-71
2024/01/13 06:48:45;;;;;;;53.30;26.00;;;-5.70;2.60;;;;;;4975339;28;20177;-71
2024/01/13 06:51:13;;;;;;;47.08;27.50;;;-5.70;3.80;;;;;;4975488;28;20221;-71
2024/01/13 06:53:39;;;;;;;45.63;27.38;;;-5.70;4.20;;;;;;4974346;28;20173;-71
2024/01/13 06:56:05;;;;;;;48.60;25.63;;;-5.60;4.30;;;;;;4975392;28;20186;-70
2024/01/13 06:58:30;;;;;;;51.30;28.50;;;-5.60;4.90;;;;;;4974845;28;20287;-71
2024/01/13 07:00:56;;;;;;;44.87;26.27;;;-5.60;4.80;;;;;;4974898;28;20205;-71
2024/01/13 07:03:21;;;;;;;48.73;27.83;;;-5.50;4.90;;;;;;4974792;28;20712;-71
2024/01/13 07:05:47;;;;;;;55.03;29.07;;;-5.50;4.90;;;;;;4975019;28;20683;-71
2024/01/13 07:08:12;;;;;;;49.90;26.77;;;-5.60;4.90;;;;;;4974766;28;20300;-71
2024/01/13 07:10:38;;;;;;;47.70;28.37;;;-5.60;4.90;;;;;;4957325;28;20260;-71
2024/01/13 07:13:03;;;;;;;49.93;27.87;;;-5.60;4.90;;;;;;4974482;28;20297;-71
2024/01/13 07:15:29;;;;;;;48.87;28.30;;;-5.60;4.90;;;;;;4974736;28;20468;-71
2024/01/13 07:17:56;;;;;;;44.87;27.20;;;-5.50;6.50;;;;;;4974602;28;20185;-71
2024/01/13 07:20:22;;;;;;;51.10;29.00;;;-5.50;5.70;;;;;;4956956;28;20332;-71
2024/01/13 07:22:47;;;;;;;44.60;26.97;;;-5.60;6.30;;;;;;4974543;28;20605;-71
2024/01/13 07:25:13;;;;;;;48.87;28.83;;;-5.60;6.50;;;;;;4974383;28;20636;-71
2024/01/13 07:27:38;;;;;;;53.50;31.43;;;-5.50;6.80;;;;;;4956913;28;20212;-70
2024/01/13 07:30:05;;;;;;;46.80;28.23;;;-5.50;6.10;;;;;;4974050;28;20224;-70
2024/01/13 07:32:30;;;;;;;50.80;27.52;;;-5.50;6.60;;;;;;4956579;28;20201;-71
2024/01/13 07:34:56;;;;;;;44.87;24.97;;;-5.50;8.10;;;;;;4973774;28;20612;-70
2024/01/13 07:37:21;;;;;;;56.70;29.73;;;-5.50;7.90;;;;;;4974132;28;20209;-70
2024/01/13 07:39:47;;;;;;;50.73;25.63;;;-5.40;8.20;;;;;;4974349;28;20244;-72
2024/01/13 07:42:13;;;;;;;43.37;26.13;;;-5.50;9.20;;;;;;4975386;28;20213;-72
2024/01/13 07:44:41;;;;;;;55.70;30.17;;;-5.50;10.90;;;;;;4976696;28;20233;-70
2024/01/13 07:47:07;;;;;;;45.33;28.63;;;-5.50;12.50;;;;;;4981517;28;20205;-72
2024/01/13 07:49:33;;;;;;;56.50;29.17;;;-5.40;13.10;;;;;;4979600;28;20181;-73
2024/01/13 07:51:58;;;;;;;41.73;26.30;;;-5.40;12.90;;;;;;4973678;28;20673;-72
2024/01/13 07:54:24;;;;;;;47.90;26.80;;;-5.50;13.40;;;;;;4973754;28;20673;-71
2024/01/13 07:56:50;;;;;;;58.67;30.67;;;-5.50;13.40;;;;;;4974368;28;20219;-72
2024/01/13 07:59:17;;;;;;;49.88;28.00;;;-5.50;13.90;;;;;;4973816;28;20177;-72
2024/01/13 08:01:43;;;;;;;50.58;28.02;;;-5.50;14.60;;;;;;4973893;28;20208;-70
2024/01/13 08:04:09;;;;;;;50.17;26.58;;;-5.50;14.70;;;;;;4960749;28;20186;-71
2024/01/13 08:06:35;;;;;;;55.43;30.00;;;-5.50;15.10;;;;;;4957369;28;20212;-71
2024/01/13 08:09:01;;;;;;;53.08;29.13;;;-5.50;14.00;;;;;;4936615;29;20190;-72
2024/01/13 08:11:26;;;;;;;52.53;27.77;;;-5.40;13.50;;;;;;4950648;28;20487;-71
2024/01/13 08:13:52;;;;;;;46.63;28.33;;;-5.40;13.50;;;;;;4958649;28;20181;-71
2024/01/13 08:16:18;;;;;;;60.47;26.97;;;-5.40;13.50;;;;;;4970257;28;20193;-71
2024/01/13 08:18:43;;;;;;;54.60;28.67;;;-5.40;13.50;;;;;;4971235;28;20656;-71
2024/01/13 08:21:09;;;;;;;57.53;28.77;;;-5.30;14.80;;;;;;4971184;28;20244;-72
2024/01/13 08:23:34;;;;;;;50.47;26.77;;;-5.20;14.20;;;;;;4970148;28;21030;-71
2024/01/13 08:26:01;;;;;;;55.30;28.60;;;-5.30;14.50;;;;;;4969657;28;20728;-71
2024/01/13 08:28:27;;;;;;;54.47;29.15;;;-5.10;15.20;;;;;;4970037;28;20201;-71
2024/01/13 08:30:52;;;;;;;58.43;27.00;;;-5.10;15.30;;;;;;4970294;28;20385;-72
2024/01/13 08:33:18;;;;;;;57.07;30.17;;;-5.10;16.00;;;;;;4970156;28;20268;-72
2024/01/13 08:35:43;;;;;;;52.17;27.57;;;-5.00;15.10;;;;;;4970358;28;20653;-71
2024/01/13 08:38:09;;;;;;;50.20;29.83;;;-5.10;13.70;;;;;;4952476;28;20197;-71
2024/01/13 08:40:35;;;;;;;46.83;29.27;;;-5.10;14.00;;;;;;4972335;28;20204;-70
2024/01/13 08:43:02;;;;;;;49.00;28.10;;;-5.00;13.40;;;;;;4974208;28;20177;-72
2024/01/13 08:45:30;;;;;;;55.22;28.80;;;-4.90;10.90;;;;;;4957293;28;20239;-72
2024/01/13 08:47:57;;;;;;;46.78;27.48;;;-4.90;7.80;;;;;;4974109;28;20220;-71
2024/01/13 08:50:23;;;;;;;45.97;25.00;;;-5.00;7.20;;;;;;4973978;28;20545;-72
2024/01/13 08:52:51;;;;;;;51.58;27.88;;;-5.00;7.20;;;;;;5012236;23;20250;-70
2024/01/13 08:55:18;;;;;;;50.13;26.02;;;-4.90;7.30;;;;;;4992592;28;20172;-72
2024/01/13 08:57:44;;;;;;;38.08;22.17;;;-4.90;6.70;;;;;;4991095;28;20187;-68
2024/01/13 09:00:10;;;;;;;48.07;26.60;;;-4.90;8.00;;;;;;4991679;28;20726;-68
2024/01/13 09:02:35;;;;;;;42.28;22.95;;;-4.90;7.60;;;;;;4991826;28;20212;-68
2024/01/13 09:05:01;;;;;;;46.17;23.63;;;-4.70;8.20;;;;;;4992416;28;20675;-68
2024/01/13 09:07:27;;;;;;;42.40;24.73;;;-4.60;7.60;;;;;;4992207;28;20722;-68
2024/01/13 09:09:52;;;;;;;40.87;25.70;;;-4.50;6.10;;;;;;4992443;28;20649;-68
2024/01/13 09:12:18;;;;;;;37.13;23.97;;;-4.40;5.60;;;;;;4992190;28;20675;-68
2024/01/13 09:14:45;;;;;;;41.60;24.40;;;-4.30;5.70;;;;;;4992917;28;20550;-68
2024/01/13 09:17:11;;;;;;;48.13;23.75;;;-4.20;5.10;;;;;;4998453;28;20172;-68
2024/01/13 09:19:37;;;;;;;44.63;24.77;;;-4.30;4.50;;;;;;4999192;28;20181;-68
2024/01/13 09:22:03;;;;;;;38.37;23.10;;;-4.30;4.10;;;;;;4999510;28;20200;-69
2024/01/13 09:24:29;;;;;;;41.90;25.90;;;-4.20;4.10;;;;;;4998882;28;20483;-69
2024/01/13 09:26:55;;;;;;;40.30;24.20;;;-4.10;3.30;;;;;;4999438;28;20192;-70
2024/01/13 09:29:21;;;;;;;41.03;23.67;;;-4.10;1.90;;;;;;5001280;28;20180;-70
2024/01/13 09:31:50;;;;;;;40.70;23.27;;;-4.10;2.70;;;;;;5003041;28;20572;-69
2024/01/13 09:34:15;;;;;;;45.42;23.63;;;-4.00;3.30;;;;;;5001874;28;20404;-68
2024/01/13 09:36:47;;;;;;;47.17;23.93;;;-3.90;2.80;;;;;;5000184;28;20315;-69
2024/01/13 09:39:14;;;;;;;49.08;25.45;;;-4.00;3.30;;;;;;4998751;28;20481;-69
2024/01/13 09:41:43;;;;;;;42.10;22.23;;;-3.90;2.70;;;;;;5010497;28;20201;-67
2024/01/13 09:44:15;;;;;;;43.30;24.77;;;-3.80;2.60;;;;;;5011230;28;20183;-69
2024/01/13 09:46:41;;;;;;;42.72;26.83;;;-3.70;3.90;;;;;;5012046;28;20196;-69
2024/01/13 09:49:12;;;;;;;44.88;23.17;;;-3.90;3.70;;;;;;5007027;28;20315;-69
2024/01/13 09:51:39;;;;;;;46.65;26.17;;;-3.80;5.50;;;;;;4982476;28;20217;-68
2024/01/13 09:54:14;;;;;;;44.95;27.38;;;-3.80;4.90;;;;;;4981920;28;20564;-70
2024/01/13 09:56:44;;;;;;;43.05;25.88;;;-3.60;4.30;;;;;;4999410;28;20180;-67
2024/01/13 09:59:11;;;;;;;52.10;24.85;;;-3.50;3.90;;;;;;4998756;28;20219;-69
2024/01/13 10:01:37;;;;;;;46.03;25.77;;;-3.60;3.80;;;;;;4981118;28;20224;-69
2024/01/13 10:04:02;;;;;;;50.17;25.60;;;-3.60;4.50;;;;;;4998392;28;20730;-69
2024/01/13 10:06:32;;;;;;;47.30;24.40;;;-3.60;3.70;;;;;;4980985;28;20449;-69
2024/01/13 10:08:58;;;;;;;44.97;24.98;;;-3.60;4.60;;;;;;4998289;28;20168;-68
2024/01/13 10:11:24;;;;;;;47.30;24.23;;;-3.50;5.60;;;;;;4998595;28;20188;-68
2024/01/13 10:14:06;;;;;;;40.43;23.87;;;-3.40;4.60;;;;;;4998114;28;20173;-68
2024/01/13 10:16:33;;;;;;;52.25;28.00;;;-3.30;5.00;;;;;;4998294;28;20173;-69
2024/01/13 10:19:06;;;;;;;61.58;29.23;;;-3.60;7.70;;;;;;4997976;28;20188;-67
2024/01/13 10:21:32;;;;;;;39.28;23.50;;;-3.50;9.10;;;;;;4998124;28;20204;-68
2024/01/13 10:24:00;;;;;;;59.90;29.40;;;-3.30;8.90;;;;;;4998545;28;20197;-69
2024/01/13 10:26:28;;;;;;;48.28;25.70;;;-3.40;8.10;;;;;;4997665;28;20227;-69
2024/01/13 10:28:56;;;;;;;60.65;28.02;;;-3.50;9.80;;;;;;4994786;28;20223;-69
2024/01/13 10:31:22;;;;;;;59.65;30.38;;;-3.40;11.10;;;;;;4994855;28;20203;-69
2024/01/13 10:33:49;;;;;;;47.22;26.25;;;-3.40;10.60;;;;;;4994631;28;20224;-67
2024/01/13 10:36:16;;;;;;;47.28;23.77;;;-3.30;10.60;;;;;;4994951;28;20189;-67
2024/01/13 10:38:50;;;;;;;50.22;28.73;;;-3.20;9.40;;;;;;4995137;28;20368;-69
2024/01/13 10:41:16;;;;;;;62.45;32.78;;;-3.60;10.40;;;;;;4994966;28;20272;-69
2024/01/13 10:43:43;;;;;;;55.93;28.17;;;-3.70;13.00;;;;;;4977710;28;20230;-69
2024/01/13 10:46:11;;;;;;;50.08;28.33;;;-3.60;13.00;;;;;;4994867;28;20183;-68
2024/01/13 10:48:50;;;;;;;70.80;34.47;;;-3.50;13.70;;;;;;4995197;28;20205;-69
2024/01/13 10:51:23;;;;;;;49.05;28.48;;;-3.50;13.00;;;;;;4995132;28;20235;-72
2024/01/13 10:53:58;;;;;;;45.58;27.63;;;-3.40;13.50;;;;;;4977204;28;20201;-70
2024/01/13 10:56:25;;;;;;;49.53;27.25;;;-3.20;12.40;;;;;;4995035;28;20460;-68
2024/01/13 10:58:52;;;;;;;57.30;28.25;;;-3.40;11.50;;;;;;4994552;28;20528;-69
2024/01/13 11:01:18;;;;;;;61.60;30.05;;;-3.30;13.60;;;;;;4977314;28;20197;-68
2024/01/13 11:03:47;;;;;;;52.27;25.70;;;-3.10;11.90;;;;;;4994428;28;20173;-68
2024/01/13 11:06:12;;;;;;;45.88;25.50;;;-3.10;10.70;;;;;;4977111;28;20448;-70
2024/01/13 11:08:38;;;;;;;40.80;22.77;;;-3.00;9.40;;;;;;4994222;28;20296;-68
2024/01/13 11:11:11;;;;;;;45.92;25.67;;;-3.20;9.20;;;;;;4994042;28;20202;-70
2024/01/13 11:13:46;;;;;;;38.30;22.90;;;-3.10;9.70;;;;;;4976645;28;20208;-69
2024/01/13 11:16:18;;;;;;;54.22;29.13;;;-3.10;8.40;;;;;;4994013;28;20176;-68
2024/01/13 11:18:50;;;;;;;50.22;23.38;;;-3.00;8.30;;;;;;4994056;28;20187;-68
2024/01/13 11:21:19;;;;;;;54.53;26.70;;;-3.00;8.00;;;;;;4992673;28;20196;-69
2024/01/13 11:23:49;;;;;;;45.22;22.67;;;-2.90;9.30;;;;;;4993859;28;20168;-68
2024/01/13 11:26:18;;;;;;;53.15;28.33;;;-2.80;8.40;;;;;;4993863;28;20174;-68
2024/01/13 11:28:47;;;;;;;51.17;26.92;;;-2.80;6.60;;;;;;4992830;28;20653;-68
2024/01/13 11:31:58;;;;;;;44.22;23.25;;;-2.90;7.20;;;;;;4976565;28;20664;-72
2024/01/13 11:34:36;;;;;;;48.40;23.90;;;-2.90;8.60;;;;;;4933606;29;20184;-70
2024/01/13 11:37:02;;;;;;;50.50;25.90;;;-2.90;7.40;;;;;;4990353;28;20300;-69
2024/01/13 11:39:28;;;;;;;45.75;24.58;;;-2.90;7.70;;;;;;4993361;28;20677;-68
2024/01/13 11:41:58;;;;;;;46.88;23.73;;;-2.80;7.30;;;;;;4993578;28;20596;-69
2024/01/13 11:44:45;;;;;;;43.38;24.10;;;-2.90;6.60;;;;;;4975958;28;20192;-70
2024/01/13 11:47:12;;;;;;;46.20;24.63;;;-2.80;6.60;;;;;;4994019;28;20288;-70
2024/01/13 11:49:46;;;;;;;43.38;25.52;;;-2.80;6.60;;;;;;4994166;28;20282;-69
2024/01/13 11:52:31;;;;;;;45.22;25.52;;;-2.80;5.20;;;;;;4993605;28;20680;-71
2024/01/13 11:54:57;;;;;;;39.65;24.35;;;-3.10;7.30;;;;;;4976647;28;20271;-69
2024/01/13 11:57:26;;;;;;;48.13;26.87;;;-2.80;8.60;;;;;;4975991;28;20647;-69
2024/01/13 11:59:52;;;;;;;58.90;28.30;;;-2.70;6.70;;;;;;4993975;28;20813;-70
2024/01/13 12:02:20;;;;;;;49.90;25.47;;;-2.50;6.10;;;;;;4993897;28;20203;-69
2024/01/13 12:04:49;;;;;;;47.45;26.45;;;-2.60;4.80;;;;;;4993814;28;20842;-70
2024/01/13 12:07:15;;;;;;;51.78;28.35;;;-2.60;6.30;;;;;;4993702;28;20605;-69
2024/01/13 12:09:40;;;;;;;59.63;28.20;;;-2.40;11.20;;;;;;4994137;28;20174;-71
2024/01/13 12:12:07;;;;;;;44.57;24.53;;;-2.40;5.70;;;;;;4995208;28;20202;-69
2024/01/13 12:14:36;;;;;;;48.90;25.60;;;-2.30;5.70;;;;;;4977115;28;20605;-70
2024/01/13 12:17:08;;;;;;;45.67;26.30;;;-2.30;5.00;;;;;;4994537;28;20179;-72
2024/01/13 12:19:38;;;;;;;45.30;24.98;;;-2.30;4.20;;;;;;4994384;28;20665;-70
2024/01/13 12:22:45;;;;;;;49.35;26.30;;;-2.00;4.70;;;;;;4994354;28;20210;-71
2024/01/13 12:25:14;;;;;;;39.85;24.45;;;-2.00;3.10;;;;;;4994558;28;20237;-68
2024/01/13 12:27:40;;;;;;;49.83;26.75;;;-2.10;1.20;;;;;;4994469;28;20221;-70
2024/01/13 12:30:10;;;;;;;35.38;21.50;;;-2.00;2.00;;;;;;4976973;28;20217;-71